Weather at Quarry2 Airport

Public forecast

Using degrees Celsius for public forecast. Weather courtesy of forecast.io.

Closest aviation weather report (METAR) to Quarry2 Airport

Closest report is Coober Pedy Airport, 75.9 nm (140.5 km) N. Retrieved 2021/06/13 12:00 UTC (35 seconds ago):

YCBP 131200Z AUTO 13006KT 9999 // NCD 15/12 Q1012

Closest aviation forecast (TAF) to Quarry2 Airport

Closest forecast is Woomera Airfield, 128.8 nm (238.5 km) ESE. Retrieved 2021/06/13 12:00 UTC (35 seconds ago):

TAF YPWR 131120Z 1312/1406 02010KT 9999 -SHRA FEW050 FM131500 02008KT 9999 -SHRA SCT050 FM132300 36008KT 9999 -SHRA FEW015 SCT020 BKN035